Flight Track Log - Related Links

Times and Time Zones

All times are in EDT time to prevent confusion due to time zone crossing. See the CHQ6132 flight status page for this flight to view local times or setup timezone preferences in your user account.

Time Position Orientation Groundspeed Altitude Reporting Facility
EDT Latitude Longitude Course Direction KTS MPH feet Rate Location/Type
Sat 04:39:30 PM 40.2089 -76.9356 252° West 216 249 7,700  Level New York Center
Sat 04:40:28 PM 40.1850 -77.0311 255° West 248 285 10,000 2,571 Climbing New York Center
Sat 04:41:29 PM 40.1683 -77.1111 258° West 260 299 12,800 2,420 Climbing New York Center
Sat 04:42:27 PM 40.1522 -77.2131 266° West 260 299 14,800 1,729 Climbing New York Center
Sat 04:43:27 PM 40.1475 -77.3022 266° West 267 307 16,200 1,140 Climbing New York Center
Sat 04:44:28 PM 40.1411 -77.4156 264° West 282 325 17,100 443 Climbing New York Center
Sat 04:45:29 PM 40.1333 -77.5181 267° West 307 353 17,100 1,560 Level New York Center
Sat 04:47:48 PM 40.1222 -77.7811 265° West 307 353 22,300 2,080 Climbing Cleveland Center
Sat 04:48:48 PM 40.1164 -77.8764 263° West 286 329 24,000 850 Climbing Cleveland Center
Sat 04:49:48 PM 40.1064 -77.9825 265° West 280 322 24,000  Level Cleveland Center
Sat 04:50:48 PM 40.0986 -78.1050 264° West 311 358 24,000  Level Cleveland Center
Sat 04:51:48 PM 40.0886 -78.2275 265° West 334 384 24,000  Level Cleveland Center
Sat 04:52:48 PM 40.0808 -78.3553 265° West 348 400 24,000  Level Cleveland Center
Sat 04:53:48 PM 40.0728 -78.4831 279° West 353 406 24,000  Level Cleveland Center
Sat 04:54:48 PM 40.0875 -78.6047 289° West 348 400 24,000  Level Cleveland Center
Sat 04:55:48 PM 40.1186 -78.7233 289° West 348 400 24,000  Level Cleveland Center
Sat 04:56:48 PM 40.1497 -78.8392 289° West 343 395 24,000  Level Cleveland Center
Sat 04:57:48 PM 40.1806 -78.9553 290° West 343 395 24,000  Level Cleveland Center
Sat 04:58:48 PM 40.2114 -79.0689 288° West 343 395 24,000  Level Cleveland Center
Sat 04:59:48 PM 40.2400 -79.1850 290° West 343 395 24,000  Level Cleveland Center
Sat 05:00:48 PM 40.2747 -79.3122 289° West 343 395 24,000  Level Cleveland Center
Sat 05:01:48 PM 40.3053 -79.4261 289° West 343 395 24,000  Level Cleveland Center
Sat 05:02:48 PM 40.3356 -79.5425 289° West 343 395 24,000  Level Cleveland Center
Sat 05:03:48 PM 40.3656 -79.6567 287° West 343 395 24,000  Level Cleveland Center
Sat 05:04:48 PM 40.3936 -79.7761 289° West 343 395 24,000  Level Cleveland Center
Sat 05:05:48 PM 40.4236 -79.8903 288° West 343 395 24,000  Level Cleveland Center
Sat 05:06:48 PM 40.4472 -79.9856 287° West 343 395 24,000  Level Cleveland Center
Sat 05:07:48 PM 40.4789 -80.1192 287° West 343 395 24,000  Level Cleveland Center
Sat 05:08:48 PM 40.5086 -80.2444 290° West 343 395 24,000  Level Cleveland Center
Sat 05:09:48 PM 40.5422 -80.3672 288° West 350 403 24,000  Level Cleveland Center
Sat 05:10:48 PM 40.5736 -80.4928 291° West 350 403 24,000  Level Cleveland Center
Sat 05:11:48 PM 40.6111 -80.6186 304° West 362 417 24,000  Level Cleveland Center
Sat 05:12:48 PM 40.6675 -80.7281 303° West 367 422 24,000  Level Cleveland Center
Sat 05:13:48 PM 40.7236 -80.8433 304° West 367 422 24,000  Level Cleveland Center
Sat 05:14:48 PM 40.7794 -80.9533 301° West 373 429 24,000  Level Cleveland Center
Sat 05:15:48 PM 40.8375 -81.0800 304° West 373 429 24,000  Level Cleveland Center
Sat 05:16:48 PM 40.8953 -81.1956 303° West 373 429 24,000  Level Cleveland Center
Sat 05:17:48 PM 40.9486 -81.3061 303° West 365 420 24,000  Level Cleveland Center
Sat 05:18:48 PM 41.0042 -81.4194 301° West 365 420 24,000  Level Cleveland Center
Sat 05:19:48 PM 41.0575 -81.5358 302° West 370 426 24,000  Level Cleveland Center
Sat 05:20:48 PM 41.1067 -81.6386 295° West 370 426 24,000  Level Cleveland Center
Sat 05:21:48 PM 41.1514 -81.7633 309° West 370 426 24,000  Level Cleveland Center
Sat 05:22:48 PM 41.2169 -81.8694 302° West 375 432 24,000  Level Cleveland Center
Sat 05:23:48 PM 41.2717 -81.9839 303° West 370 426 24,000  Level Cleveland Center
Sat 05:24:48 PM 41.3286 -82.1011 304° West 370 426 24,000 -1,000 Level Cleveland Center
Sat 05:25:48 PM 41.3917 -82.2244 310° West 365 420 22,000 -2,300 Descending Cleveland Center
Sat 05:26:48 PM 41.4547 -82.3258 309° West 365 420 19,400 -2,450 Descending Cleveland Center
Sat 05:27:48 PM 41.5156 -82.4272 309° West 357 411 17,100 -2,400 Descending Cleveland Center
Sat 05:28:48 PM 41.5725 -82.5206 308° West 351 404 14,600 -2,547 Descending Cleveland Center
Sat 05:29:34 PM 41.6131 -82.5911 308° West 301 346 12,600 -1,514 Descending Cleveland Center
Sat 05:30:35 PM 41.6656 -82.6817 309° West 304 350 11,900 -344 Descending Cleveland Center
Sat 05:31:36 PM 41.7242 -82.7783 315° West 318 366 11,900 -767 Level Cleveland Center
Sat 05:32:48 PM 41.7911 -82.8697 298° West 288 331 10,200 -1,266 Descending Cleveland Center
Sat 05:33:25 PM 41.8111 -82.9206 301° West 285 328 9,600 -1,154 Descending Cleveland Center
Sat 05:34:32 PM 41.8569 -83.0225 302° West 273 314 8,200 -1,313 Descending Cleveland Center
Sat 05:35:33 PM 41.8967 -83.1078 304° West 268 308 6,800 -1,039 Descending Cleveland Center
Sat 05:36:39 PM 41.9386 -83.1903 303° West 227 261 6,000 -537 Descending Cleveland Center
Sat 05:37:47 PM 41.9764 -83.2675 305° West 226 260 5,600 -797 Descending Cleveland Center
Sat 05:38:47 PM 42.0125 -83.3358 305° West 223 257 4,300 -1,096 Descending Cleveland Center
Sat 05:39:42 PM 42.0422 -83.3931 322° Northwest 187 215 3,500 -689 Descending Cleveland Center
Sat 05:40:49 PM 42.0789 -83.4311 25° Northeast 146 168 2,900 -295 Descending Cleveland Center
Sat 05:41:44 PM 42.1128 -83.4103 27° Northeast 141 162 2,900 -563 Level Cleveland Center
Sat 05:42:57 PM 42.1553 -83.3814 28° Northeast 136 157 1,700 -896 Descending Cleveland Center
Sat 05:43:58 PM 42.1847 -83.3603 28° Northeast 126 145 900 -787 Descending Cleveland Center

Login

Don't have an account? Register now (free) for customized features, flight alerts, and more!